createdAt,value
2022-10-26T00:01:19.054Z,8.50
2022-10-26T00:03:47.893Z,8.50
2022-10-26T00:06:17.372Z,8.50
2022-10-26T00:08:46.240Z,8.50
2022-10-26T00:11:15.036Z,8.40
2022-10-26T00:13:43.398Z,8.40
2022-10-26T00:16:15.505Z,8.40
2022-10-26T00:18:44.242Z,8.30
2022-10-26T00:21:12.875Z,8.30
2022-10-26T00:23:41.193Z,8.30
2022-10-26T00:26:10.818Z,8.30
2022-10-26T00:28:39.497Z,8.30
2022-10-26T00:31:10.409Z,8.30
2022-10-26T00:33:40.104Z,8.30
2022-10-26T00:36:10.167Z,8.30
2022-10-26T00:38:38.604Z,8.30
2022-10-26T00:41:07.270Z,8.20
2022-10-26T00:43:40.507Z,8.30
2022-10-26T00:46:13.612Z,8.30
2022-10-26T00:48:47.930Z,8.30
2022-10-26T00:51:23.721Z,8.30
2022-10-26T00:53:52.769Z,8.30
2022-10-26T00:56:21.431Z,8.40
2022-10-26T00:58:50.290Z,8.40
2022-10-26T01:01:19.683Z,8.40
2022-10-26T01:03:50.527Z,8.50
2022-10-26T01:06:18.986Z,8.60
2022-10-26T01:08:48.032Z,8.60
2022-10-26T01:11:17.048Z,8.60
2022-10-26T01:13:47.487Z,8.70
2022-10-26T01:16:34.062Z,8.70
2022-10-26T01:19:20.780Z,8.80
2022-10-26T01:21:56.438Z,8.90
2022-10-26T01:24:47.369Z,8.90
2022-10-26T01:27:35.279Z,9.00
2022-10-26T01:30:25.119Z,9.00
2022-10-26T01:33:11.528Z,9.00
2022-10-26T01:35:45.253Z,9.10
2022-10-26T01:38:26.602Z,9.10
2022-10-26T01:41:01.267Z,9.20
2022-10-26T01:43:35.076Z,9.20
2022-10-26T01:46:06.919Z,9.30
2022-10-26T01:48:36.177Z,9.40
2022-10-26T01:51:05.500Z,9.40
2022-10-26T01:53:34.777Z,9.50
2022-10-26T01:56:03.444Z,9.50
2022-10-26T01:59:16.202Z,9.50
2022-10-26T02:02:19.618Z,9.60
2022-10-26T02:05:02.290Z,9.60
2022-10-26T02:07:39.929Z,9.70
2022-10-26T02:10:19.849Z,9.80
2022-10-26T02:12:58.851Z,9.80
2022-10-26T02:15:34.387Z,9.90
2022-10-26T02:18:10.039Z,9.90
2022-10-26T02:20:45.126Z,9.90
2022-10-26T02:23:14.731Z,9.90
2022-10-26T02:25:48.063Z,10.00
2022-10-26T02:28:23.466Z,10.00
2022-10-26T02:30:55.953Z,10.00
2022-10-26T02:33:27.077Z,10.00
2022-10-26T02:35:57.009Z,9.90
2022-10-26T02:38:26.418Z,10.00
2022-10-26T02:40:57.096Z,9.90
2022-10-26T02:43:27.214Z,10.00
2022-10-26T02:46:00.839Z,10.00
2022-10-26T02:48:30.793Z,10.00
2022-10-26T02:51:02.943Z,10.00
2022-10-26T02:53:34.656Z,10.00
2022-10-26T02:56:08.814Z,10.00
2022-10-26T02:58:42.317Z,10.00
2022-10-26T03:01:10.847Z,10.10
2022-10-26T03:03:40.801Z,10.10
2022-10-26T03:06:09.235Z,10.10
2022-10-26T03:08:37.577Z,10.10
2022-10-26T03:11:06.465Z,10.10
2022-10-26T03:13:35.049Z,10.10
2022-10-26T03:16:03.406Z,10.20
2022-10-26T03:18:31.692Z,10.20
2022-10-26T03:21:01.544Z,10.20
2022-10-26T03:23:29.861Z,10.20
2022-10-26T03:25:58.514Z,10.20
2022-10-26T03:28:27.134Z,10.20
2022-10-26T03:30:55.533Z,10.20
2022-10-26T03:33:27.022Z,10.30
2022-10-26T03:35:57.307Z,10.30
2022-10-26T03:38:27.061Z,10.30
2022-10-26T03:40:55.366Z,10.40
2022-10-26T03:43:23.773Z,10.40
2022-10-26T03:45:52.022Z,10.40
2022-10-26T03:48:20.421Z,10.40
2022-10-26T03:50:48.774Z,10.40
2022-10-26T03:53:17.165Z,10.50
2022-10-26T03:55:47.339Z,10.50
2022-10-26T03:58:15.833Z,10.50
2022-10-26T04:00:44.314Z,10.40
2022-10-26T04:03:12.695Z,10.40
2022-10-26T04:05:41.009Z,10.40
2022-10-26T04:08:10.517Z,10.40
2022-10-26T04:10:39.169Z,10.40
2022-10-26T04:13:10.787Z,10.40
2022-10-26T04:15:39.280Z,10.40
2022-10-26T04:18:07.649Z,10.40
2022-10-26T04:20:36.709Z,10.40
2022-10-26T04:23:07.057Z,10.40
2022-10-26T04:25:35.699Z,10.40
2022-10-26T04:28:06.150Z,10.40
2022-10-26T04:30:36.744Z,10.40
2022-10-26T04:33:05.569Z,10.40
2022-10-26T04:35:34.458Z,10.40
2022-10-26T04:38:04.473Z,10.40
2022-10-26T04:40:34.408Z,10.40
2022-10-26T04:43:02.982Z,10.40
2022-10-26T04:45:31.820Z,10.50
2022-10-26T04:48:03.234Z,10.50
2022-10-26T04:50:31.979Z,10.50
2022-10-26T04:53:00.473Z,10.60
2022-10-26T04:55:28.827Z,10.60
2022-10-26T04:58:00.065Z,10.60
2022-10-26T05:00:31.050Z,10.70
2022-10-26T05:03:04.947Z,10.70
2022-10-26T05:05:35.390Z,10.70
2022-10-26T05:08:03.856Z,10.80
2022-10-26T05:10:32.410Z,10.80
2022-10-26T05:13:02.239Z,10.80
2022-10-26T05:15:32.623Z,10.80
2022-10-26T05:18:04.158Z,10.70
2022-10-26T05:20:35.369Z,10.80
2022-10-26T05:23:05.451Z,10.80
2022-10-26T05:25:36.353Z,10.80
2022-10-26T05:28:08.049Z,10.80
2022-10-26T05:30:36.915Z,10.80
2022-10-26T05:33:07.696Z,10.80
2022-10-26T05:35:36.006Z,10.90
2022-10-26T05:38:08.946Z,10.90
2022-10-26T05:40:37.748Z,11.00
2022-10-26T05:43:06.213Z,11.00
2022-10-26T05:45:34.518Z,11.10
2022-10-26T05:48:03.401Z,11.10
2022-10-26T05:50:33.294Z,11.20
2022-10-26T05:53:01.567Z,11.20
2022-10-26T05:55:30.705Z,11.20
2022-10-26T05:57:59.541Z,11.30
2022-10-26T06:00:30.124Z,11.40
2022-10-26T06:03:16.961Z,11.30
2022-10-26T06:05:54.261Z,11.40
2022-10-26T06:08:24.736Z,11.40
2022-10-26T06:10:54.629Z,11.50
2022-10-26T06:13:23.498Z,11.50
2022-10-26T06:16:04.157Z,11.50
2022-10-26T06:18:40.961Z,11.60
2022-10-26T06:21:24.689Z,11.60
2022-10-26T06:23:58.248Z,11.60
2022-10-26T06:26:36.714Z,11.60
2022-10-26T06:29:17.947Z,11.60
2022-10-26T06:31:47.145Z,11.60
2022-10-26T06:34:22.272Z,11.60
2022-10-26T06:39:21.052Z,11.80
2022-10-26T06:41:49.757Z,11.80
2022-10-26T06:44:23.929Z,11.80
2022-10-26T06:47:00.020Z,11.80
2022-10-26T06:49:32.399Z,11.80
2022-10-26T06:52:06.354Z,11.90
2022-10-26T06:54:47.797Z,12.10
2022-10-26T06:57:17.997Z,12.20
2022-10-26T06:59:50.169Z,12.30
2022-10-26T07:02:18.373Z,12.40
2022-10-26T07:04:47.195Z,12.40
2022-10-26T07:07:19.350Z,12.50
2022-10-26T07:09:47.635Z,12.50
2022-10-26T07:12:15.919Z,12.50
2022-10-26T07:14:44.148Z,12.60
2022-10-26T07:17:12.770Z,12.70
2022-10-26T07:19:42.863Z,12.80
2022-10-26T07:22:11.399Z,12.90
2022-10-26T07:24:41.097Z,13.00
2022-10-26T07:27:09.200Z,13.20
2022-10-26T07:29:37.339Z,13.40
2022-10-26T07:32:05.889Z,13.60
2022-10-26T07:34:33.980Z,13.70
2022-10-26T07:37:02.218Z,13.90
2022-10-26T07:39:32.668Z,14.00
2022-10-26T07:42:02.447Z,14.30
2022-10-26T07:44:30.762Z,14.50
2022-10-26T07:46:59.202Z,14.70
2022-10-26T07:49:27.954Z,14.90
2022-10-26T07:51:56.292Z,14.90
2022-10-26T07:54:24.443Z,15.00
2022-10-26T07:56:52.822Z,15.00
2022-10-26T07:59:22.346Z,15.10
2022-10-26T08:01:50.852Z,15.10
2022-10-26T08:04:19.094Z,15.10
2022-10-26T08:06:48.710Z,15.20
2022-10-26T08:09:16.881Z,15.10
2022-10-26T08:11:45.079Z,15.10
2022-10-26T08:14:13.360Z,15.10
2022-10-26T08:16:42.984Z,15.10
2022-10-26T08:19:11.451Z,15.10
2022-10-26T08:21:40.628Z,15.00
2022-10-26T08:24:09.655Z,15.00
2022-10-26T08:26:38.011Z,15.00
2022-10-26T08:29:10.497Z,15.10
2022-10-26T08:31:38.637Z,15.20
2022-10-26T08:34:08.730Z,15.20
2022-10-26T08:36:37.154Z,15.30
2022-10-26T08:39:05.575Z,15.40
2022-10-26T08:41:38.189Z,15.60
2022-10-26T08:44:21.424Z,15.70
2022-10-26T08:46:53.476Z,15.90
2022-10-26T08:49:26.949Z,16.00
2022-10-26T08:51:59.129Z,16.10
2022-10-26T08:54:36.838Z,16.30
2022-10-26T08:57:17.806Z,16.50
2022-10-26T08:59:52.082Z,16.70
2022-10-26T09:02:21.580Z,16.90
2022-10-26T09:04:51.438Z,17.10
2022-10-26T09:07:41.182Z,17.20
2022-10-26T09:10:31.416Z,17.30
2022-10-26T09:13:05.608Z,17.30
2022-10-26T09:15:44.166Z,17.30
2022-10-26T09:18:22.172Z,17.40
2022-10-26T09:21:04.688Z,17.40
2022-10-26T09:23:56.765Z,17.40
2022-10-26T09:26:33.696Z,17.50
2022-10-26T09:29:06.224Z,17.50
2022-10-26T09:31:43.370Z,17.40
2022-10-26T09:34:21.940Z,17.50
2022-10-26T09:36:55.702Z,17.50
2022-10-26T09:39:33.229Z,17.50
2022-10-26T09:42:11.479Z,17.50
2022-10-26T09:44:46.034Z,17.60
2022-10-26T09:47:24.592Z,17.80
2022-10-26T09:49:57.224Z,18.00
2022-10-26T09:52:26.867Z,18.40
2022-10-26T09:54:55.025Z,18.70
2022-10-26T09:57:23.417Z,19.00
2022-10-26T09:59:52.646Z,19.20
2022-10-26T10:02:38.422Z,19.40
2022-10-26T10:05:32.604Z,19.70
2022-10-26T10:08:23.505Z,19.90
2022-10-26T10:11:00.205Z,20.00
2022-10-26T10:13:30.237Z,20.10
2022-10-26T10:16:05.437Z,20.00
2022-10-26T10:18:34.252Z,19.90
2022-10-26T10:21:03.193Z,19.70
2022-10-26T10:23:35.611Z,19.70
2022-10-26T10:26:06.741Z,19.70
2022-10-26T10:28:35.915Z,19.70
2022-10-26T10:31:06.970Z,19.70
2022-10-26T10:33:37.447Z,19.70
2022-10-26T10:36:08.989Z,19.70
2022-10-26T10:38:46.621Z,19.80
2022-10-26T10:41:22.498Z,19.80
2022-10-26T10:43:53.604Z,19.80
2022-10-26T10:46:25.106Z,19.90
2022-10-26T10:48:57.295Z,20.00
2022-10-26T10:51:26.877Z,20.00
2022-10-26T10:53:57.872Z,20.10
2022-10-26T10:56:38.874Z,20.10
2022-10-26T10:59:35.889Z,20.00
2022-10-26T11:02:34.650Z,19.80
2022-10-26T11:05:27.136Z,19.60
2022-10-26T11:08:04.108Z,19.40
2022-10-26T11:10:38.605Z,19.40
2022-10-26T11:13:16.580Z,19.50
2022-10-26T11:15:47.613Z,19.50
2022-10-26T11:18:19.569Z,19.60
2022-10-26T11:20:53.896Z,19.50
2022-10-26T11:23:25.862Z,19.50
2022-10-26T11:25:59.081Z,19.50
2022-10-26T11:28:36.954Z,19.60
2022-10-26T11:31:12.014Z,19.60
2022-10-26T11:33:44.585Z,19.60
2022-10-26T11:36:19.828Z,19.70
2022-10-26T11:38:57.523Z,19.70
2022-10-26T11:41:33.572Z,19.70
2022-10-26T11:44:07.964Z,19.70
2022-10-26T11:46:41.066Z,19.60
2022-10-26T11:49:15.794Z,19.60
2022-10-26T11:51:50.648Z,19.60
2022-10-26T11:54:25.731Z,19.60
2022-10-26T11:56:58.202Z,19.60
2022-10-26T11:59:32.388Z,19.60
2022-10-26T12:02:06.219Z,19.60
2022-10-26T12:04:38.361Z,19.60
2022-10-26T12:07:11.420Z,19.50
2022-10-26T12:09:44.402Z,19.40
2022-10-26T12:12:23.006Z,19.40
2022-10-26T12:14:58.254Z,19.50
2022-10-26T12:17:32.515Z,19.50
2022-10-26T12:20:06.224Z,19.60
2022-10-26T12:22:39.741Z,19.60
2022-10-26T12:25:20.328Z,19.70
2022-10-26T12:27:55.673Z,19.70
2022-10-26T12:30:32.308Z,19.60
2022-10-26T12:33:01.724Z,19.60
2022-10-26T12:35:33.298Z,19.60
2022-10-26T12:38:02.816Z,19.60
2022-10-26T12:40:44.873Z,19.60
2022-10-26T12:43:39.885Z,19.60
2022-10-26T12:46:41.013Z,19.60
2022-10-26T12:49:58.177Z,19.60
2022-10-26T12:52:32.895Z,19.60
2022-10-26T12:55:40.295Z,19.60
2022-10-26T12:58:36.238Z,19.80
2022-10-26T13:01:34.667Z,20.30
2022-10-26T13:04:27.102Z,20.80
2022-10-26T13:07:18.439Z,21.40
2022-10-26T13:09:50.175Z,22.20
2022-10-26T13:12:18.361Z,22.70
2022-10-26T13:14:58.185Z,23.00
2022-10-26T13:17:30.215Z,23.10
2022-10-26T13:20:00.332Z,23.00
2022-10-26T13:22:29.530Z,23.00
2022-10-26T13:25:01.879Z,23.00
2022-10-26T13:27:44.940Z,23.10
2022-10-26T13:30:44.913Z,23.20
2022-10-26T13:33:33.979Z,23.40
2022-10-26T13:36:07.577Z,23.40
2022-10-26T13:38:37.873Z,23.40
2022-10-26T13:41:13.509Z,23.20
2022-10-26T13:43:42.110Z,23.10
2022-10-26T13:46:25.469Z,23.20
2022-10-26T13:48:59.713Z,23.20
2022-10-26T13:51:39.567Z,23.30
2022-10-26T13:54:19.109Z,23.30
2022-10-26T13:57:39.390Z,23.30
2022-10-26T14:00:32.964Z,23.20
2022-10-26T14:03:27.305Z,23.00
2022-10-26T14:05:57.622Z,22.90
2022-10-26T14:08:25.856Z,22.80
2022-10-26T14:10:57.309Z,22.80
2022-10-26T14:13:27.436Z,22.80
2022-10-26T14:15:57.376Z,22.70
2022-10-26T14:18:27.933Z,22.70
2022-10-26T14:21:01.717Z,22.60
2022-10-26T14:23:34.342Z,22.60
2022-10-26T14:26:02.836Z,22.70
2022-10-26T14:28:33.013Z,22.80
2022-10-26T14:31:17.913Z,23.00
2022-10-26T14:33:48.565Z,23.10
2022-10-26T14:36:21.408Z,23.20
2022-10-26T14:38:54.185Z,23.10
2022-10-26T14:41:23.199Z,23.00
2022-10-26T14:43:52.077Z,22.80
2022-10-26T14:46:21.154Z,22.50
2022-10-26T14:48:55.901Z,22.20
2022-10-26T14:51:29.585Z,21.80
2022-10-26T14:54:01.072Z,21.50
2022-10-26T14:56:32.630Z,21.20
2022-10-26T14:59:00.848Z,21.00
2022-10-26T15:01:33.225Z,20.80
2022-10-26T15:04:06.516Z,20.60
2022-10-26T15:06:44.964Z,20.40
2022-10-26T15:09:32.843Z,20.20
2022-10-26T15:12:02.986Z,20.10
2022-10-26T15:14:31.442Z,20.00
2022-10-26T15:17:00.989Z,19.90
2022-10-26T15:19:29.679Z,19.80
2022-10-26T15:21:59.482Z,19.70
2022-10-26T15:24:34.469Z,19.70
2022-10-26T15:27:14.467Z,19.60
2022-10-26T15:29:45.194Z,19.50
2022-10-26T15:32:28.128Z,19.40
2022-10-26T15:35:22.382Z,19.30
2022-10-26T15:37:53.463Z,19.20
2022-10-26T15:42:55.865Z,19.00
2022-10-26T15:45:26.039Z,18.90
2022-10-26T15:47:55.771Z,18.80
2022-10-26T15:50:25.999Z,18.70
2022-10-26T15:53:01.751Z,18.50
2022-10-26T15:55:31.315Z,18.50
2022-10-26T15:57:59.434Z,18.40
2022-10-26T16:00:27.612Z,18.30
2022-10-26T16:02:55.763Z,18.20
2022-10-26T16:05:24.109Z,18.10
2022-10-26T16:07:52.712Z,18.10
2022-10-26T16:10:24.772Z,18.00
2022-10-26T16:12:53.331Z,17.90
2022-10-26T16:15:23.346Z,17.90
2022-10-26T16:17:52.061Z,17.80
2022-10-26T16:20:23.974Z,17.80
2022-10-26T16:22:53.820Z,17.70
2022-10-26T16:25:29.010Z,17.70
2022-10-26T16:27:57.424Z,17.60
2022-10-26T16:30:30.170Z,17.60
2022-10-26T16:32:58.724Z,17.50
2022-10-26T16:35:58.013Z,17.40
2022-10-26T16:38:27.200Z,17.40
2022-10-26T16:41:03.491Z,17.40
2022-10-26T16:43:33.675Z,17.30
2022-10-26T16:46:05.728Z,17.30
2022-10-26T16:48:35.837Z,17.30
2022-10-26T16:51:07.705Z,17.20
2022-10-26T16:53:35.863Z,17.20
2022-10-26T16:56:06.702Z,17.10
2022-10-26T16:58:36.865Z,17.10
2022-10-26T17:01:06.267Z,17.10
2022-10-26T17:03:34.975Z,17.00
2022-10-26T17:06:04.933Z,16.90
2022-10-26T17:08:34.362Z,16.90
2022-10-26T17:11:06.143Z,16.80
2022-10-26T17:13:34.409Z,16.80
2022-10-26T17:16:03.401Z,16.70
2022-10-26T17:18:31.612Z,16.60
2022-10-26T17:20:59.819Z,16.50
2022-10-26T17:23:27.969Z,16.40
2022-10-26T17:25:56.128Z,16.30
2022-10-26T17:28:25.710Z,16.20
2022-10-26T17:31:02.167Z,16.00
2022-10-26T17:33:30.281Z,15.90
2022-10-26T17:35:58.381Z,15.90
2022-10-26T17:38:26.488Z,15.80
2022-10-26T17:40:54.592Z,15.80
2022-10-26T17:43:23.039Z,15.70
2022-10-26T17:45:52.529Z,15.70
2022-10-26T17:48:20.588Z,15.70
2022-10-26T17:50:48.890Z,15.70
2022-10-26T17:53:17.001Z,15.60
2022-10-26T17:55:45.218Z,15.50
2022-10-26T17:58:13.409Z,15.50
2022-10-26T18:00:41.590Z,15.40
2022-10-26T18:03:11.126Z,15.40
2022-10-26T18:05:39.305Z,15.30
2022-10-26T18:08:07.594Z,15.30
2022-10-26T18:10:38.177Z,15.30
2022-10-26T18:13:06.448Z,15.20
2022-10-26T18:15:36.336Z,15.20
2022-10-26T18:18:04.520Z,15.10
2022-10-26T18:20:34.121Z,15.00
2022-10-26T18:23:02.239Z,14.90
2022-10-26T18:25:31.266Z,14.90
2022-10-26T18:27:59.494Z,14.80
2022-10-26T18:30:27.696Z,14.80
2022-10-26T18:32:55.790Z,14.80
2022-10-26T18:35:24.107Z,14.70
2022-10-26T18:37:54.305Z,14.70
2022-10-26T18:40:22.690Z,14.70
2022-10-26T18:42:50.829Z,14.60
2022-10-26T18:45:19.100Z,14.50
2022-10-26T18:47:47.268Z,14.40
2022-10-26T18:50:15.702Z,14.40
2022-10-26T18:52:44.428Z,14.40
2022-10-26T18:55:13.990Z,14.30
2022-10-26T18:57:42.254Z,14.30
2022-10-26T19:00:11.423Z,14.20
2022-10-26T19:02:39.559Z,14.10
2022-10-26T19:05:08.679Z,14.10
2022-10-26T19:07:38.974Z,14.00
2022-10-26T19:10:08.407Z,14.00
2022-10-26T19:12:37.958Z,13.90
2022-10-26T19:15:07.031Z,13.90
2022-10-26T19:17:35.333Z,13.80
2022-10-26T19:20:03.651Z,13.70
2022-10-26T19:22:32.822Z,13.60
2022-10-26T19:25:01.003Z,13.50
2022-10-26T19:27:29.175Z,13.50
2022-10-26T19:29:59.051Z,13.40
2022-10-26T19:32:28.731Z,13.40
2022-10-26T19:34:56.877Z,13.30
2022-10-26T19:37:28.246Z,13.30
2022-10-26T19:39:56.695Z,13.30
2022-10-26T19:42:24.906Z,13.30
2022-10-26T19:44:53.016Z,13.30
2022-10-26T19:47:23.859Z,13.30
2022-10-26T19:49:51.996Z,13.20
2022-10-26T19:52:20.152Z,13.20
2022-10-26T19:54:48.310Z,13.20
2022-10-26T19:57:16.435Z,13.20
2022-10-26T19:59:44.581Z,13.20
2022-10-26T20:02:12.722Z,13.10
2022-10-26T20:04:42.288Z,13.00
2022-10-26T20:07:10.484Z,13.00
2022-10-26T20:09:38.745Z,13.00
2022-10-26T20:12:07.378Z,13.00
2022-10-26T20:14:35.668Z,12.90
2022-10-26T20:17:04.684Z,12.90
2022-10-26T20:19:33.058Z,12.80
2022-10-26T20:22:02.889Z,12.80
2022-10-26T20:24:31.221Z,12.80
2022-10-26T20:26:59.491Z,12.70
2022-10-26T20:29:27.910Z,12.70
2022-10-26T20:31:57.907Z,12.70
2022-10-26T20:34:26.259Z,12.70
2022-10-26T20:36:54.723Z,12.70
2022-10-26T20:39:25.267Z,12.60
2022-10-26T20:41:54.104Z,12.50
2022-10-26T20:44:25.950Z,12.50
2022-10-26T20:46:54.634Z,12.50
2022-10-26T20:49:23.558Z,12.50
2022-10-26T20:52:20.010Z,12.50
2022-10-26T20:54:52.613Z,12.50
2022-10-26T20:57:26.760Z,12.40
2022-10-26T20:59:58.780Z,12.40
2022-10-26T21:02:27.767Z,12.40
2022-10-26T21:04:55.942Z,12.30
2022-10-26T21:07:24.064Z,12.20
2022-10-26T21:09:53.827Z,12.20
2022-10-26T21:12:21.976Z,12.20
2022-10-26T21:14:50.190Z,12.10
2022-10-26T21:17:18.645Z,12.10
2022-10-26T21:19:46.741Z,12.10
2022-10-26T21:22:15.741Z,12.10
2022-10-26T21:24:43.868Z,12.00
2022-10-26T21:27:13.748Z,12.00
2022-10-26T21:29:41.835Z,12.00
2022-10-26T21:32:10.001Z,11.90
2022-10-26T21:34:38.142Z,11.90
2022-10-26T21:37:06.349Z,11.90
2022-10-26T21:39:34.481Z,11.80
2022-10-26T21:42:02.952Z,11.70
2022-10-26T21:44:40.930Z,11.70
2022-10-26T21:47:09.426Z,11.60
2022-10-26T21:49:37.682Z,11.50
2022-10-26T21:52:06.673Z,11.50
2022-10-26T21:54:34.835Z,11.40
2022-10-26T21:57:03.017Z,11.30
2022-10-26T21:59:32.674Z,11.40
2022-10-26T22:02:00.918Z,11.40
2022-10-26T22:04:29.164Z,11.40
2022-10-26T22:06:57.353Z,11.40
2022-10-26T22:09:25.467Z,11.40
2022-10-26T22:11:53.623Z,11.30
2022-10-26T22:14:21.849Z,11.20
2022-10-26T22:16:51.349Z,11.10
2022-10-26T22:19:19.545Z,11.00
2022-10-26T22:21:47.668Z,10.90
2022-10-26T22:24:16.181Z,10.90
2022-10-26T22:27:09.545Z,10.90
2022-10-26T22:29:37.640Z,10.90
2022-10-26T22:32:07.245Z,11.00
2022-10-26T22:34:35.385Z,11.00
2022-10-26T22:37:03.532Z,10.90
2022-10-26T22:39:31.637Z,11.00
2022-10-26T22:41:59.796Z,10.90
2022-10-26T22:44:27.957Z,10.80
2022-10-26T22:46:56.044Z,10.80
2022-10-26T22:49:25.591Z,10.80
2022-10-26T22:51:53.763Z,10.80
2022-10-26T22:54:21.899Z,10.70
2022-10-26T22:56:50.163Z,10.60
2022-10-26T22:59:18.504Z,10.60
2022-10-26T23:01:46.917Z,10.60
2022-10-26T23:04:15.470Z,10.60
2022-10-26T23:06:45.348Z,10.60
2022-10-26T23:09:13.607Z,10.60
2022-10-26T23:11:41.917Z,10.60
2022-10-26T23:14:10.459Z,10.50
2022-10-26T23:16:38.625Z,10.50
2022-10-26T23:19:06.818Z,10.40
2022-10-26T23:21:35.064Z,10.40
2022-10-26T23:24:05.308Z,10.40
2022-10-26T23:26:33.482Z,10.30
2022-10-26T23:29:01.833Z,10.30
2022-10-26T23:31:30.714Z,10.30
2022-10-26T23:33:59.030Z,10.30
2022-10-26T23:36:27.320Z,10.30
2022-10-26T23:38:55.468Z,10.30
2022-10-26T23:41:25.027Z,10.40
2022-10-26T23:43:53.134Z,10.40
2022-10-26T23:46:21.504Z,10.40
2022-10-26T23:48:49.729Z,10.40
2022-10-26T23:51:21.002Z,10.40
2022-10-26T23:53:49.229Z,10.40
2022-10-26T23:56:17.438Z,10.40
2022-10-26T23:58:50.928Z,10.40
